sensor_id;sensor_type;location;lat;lon;timestamp;P1;durP1;ratioP1;P2;durP2;ratioP2
1577;SDS011;57623;53.608;10.004;2022-12-07T00:01:28;16.07;;;12.60;;
1577;SDS011;57623;53.608;10.004;2022-12-07T00:04:19;16.90;;;12.50;;
1577;SDS011;57623;53.608;10.004;2022-12-07T00:07:07;15.70;;;13.20;;
1577;SDS011;57623;53.608;10.004;2022-12-07T00:10:02;15.70;;;13.07;;
1577;SDS011;57623;53.608;10.004;2022-12-07T00:12:50;16.50;;;13.47;;
1577;SDS011;57623;53.608;10.004;2022-12-07T00:15:39;13.37;;;12.03;;
1577;SDS011;57623;53.608;10.004;2022-12-07T00:18:27;17.57;;;13.73;;
1577;SDS011;57623;53.608;10.004;2022-12-07T00:21:18;16.80;;;13.73;;
1577;SDS011;57623;53.608;10.004;2022-12-07T00:24:10;19.00;;;14.23;;
1577;SDS011;57623;53.608;10.004;2022-12-07T00:27:00;16.60;;;13.23;;
1577;SDS011;57623;53.608;10.004;2022-12-07T00:29:48;15.73;;;13.43;;
1577;SDS011;57623;53.608;10.004;2022-12-07T00:32:37;15.03;;;13.00;;
1577;SDS011;57623;53.608;10.004;2022-12-07T00:35:25;17.20;;;14.13;;
1577;SDS011;57623;53.608;10.004;2022-12-07T00:38:15;16.70;;;12.90;;
1577;SDS011;57623;53.608;10.004;2022-12-07T00:41:04;14.93;;;12.70;;
1577;SDS011;57623;53.608;10.004;2022-12-07T00:43:58;14.93;;;12.90;;
1577;SDS011;57623;53.608;10.004;2022-12-07T00:46:46;15.77;;;12.33;;
1577;SDS011;57623;53.608;10.004;2022-12-07T00:49:39;14.77;;;12.10;;
1577;SDS011;57623;53.608;10.004;2022-12-07T00:52:27;15.53;;;12.27;;
1577;SDS011;57623;53.608;10.004;2022-12-07T00:55:17;15.70;;;12.50;;
1577;SDS011;57623;53.608;10.004;2022-12-07T00:58:08;16.40;;;13.07;;
1577;SDS011;57623;53.608;10.004;2022-12-07T01:01:02;15.33;;;12.13;;
1577;SDS011;57623;53.608;10.004;2022-12-07T01:03:53;13.50;;;11.43;;
1577;SDS011;57623;53.608;10.004;2022-12-07T01:06:43;14.73;;;11.83;;
1577;SDS011;57623;53.608;10.004;2022-12-07T01:09:34;11.70;;;10.50;;
1577;SDS011;57623;53.608;10.004;2022-12-07T01:12:27;13.20;;;10.40;;
1577;SDS011;57623;53.608;10.004;2022-12-07T01:15:15;12.30;;;10.20;;
1577;SDS011;57623;53.608;10.004;2022-12-07T01:18:06;14.43;;;10.63;;
1577;SDS011;57623;53.608;10.004;2022-12-07T01:20:58;13.10;;;9.67;;
1577;SDS011;57623;53.608;10.004;2022-12-07T01:23:49;12.83;;;9.30;;
1577;SDS011;57623;53.608;10.004;2022-12-07T01:26:39;9.83;;;8.83;;
1577;SDS011;57623;53.608;10.004;2022-12-07T01:29:29;11.27;;;9.93;;
1577;SDS011;57623;53.608;10.004;2022-12-07T01:32:18;9.83;;;8.83;;
1577;SDS011;57623;53.608;10.004;2022-12-07T01:35:09;11.30;;;9.33;;
1577;SDS011;57623;53.608;10.004;2022-12-07T01:38:00;9.40;;;8.27;;
1577;SDS011;57623;53.608;10.004;2022-12-07T01:40:53;10.13;;;8.83;;
1577;SDS011;57623;53.608;10.004;2022-12-07T01:46:51;12.10;;;9.40;;
1577;SDS011;57623;53.608;10.004;2022-12-07T01:49:47;10.83;;;9.37;;
1577;SDS011;57623;53.608;10.004;2022-12-07T01:52:40;13.73;;;9.50;;
1577;SDS011;57623;53.608;10.004;2022-12-07T01:55:32;9.07;;;8.17;;
1577;SDS011;57623;53.608;10.004;2022-12-07T01:58:25;10.70;;;8.40;;
1577;SDS011;57623;53.608;10.004;2022-12-07T02:01:14;10.23;;;9.07;;
1577;SDS011;57623;53.608;10.004;2022-12-07T02:04:04;12.57;;;8.70;;
1577;SDS011;57623;53.608;10.004;2022-12-07T02:06:58;9.47;;;8.13;;
1577;SDS011;57623;53.608;10.004;2022-12-07T02:09:48;10.67;;;8.53;;
1577;SDS011;57623;53.608;10.004;2022-12-07T02:12:40;8.60;;;7.70;;
1577;SDS011;57623;53.608;10.004;2022-12-07T02:15:29;8.60;;;7.47;;
1577;SDS011;57623;53.608;10.004;2022-12-07T02:18:21;9.90;;;7.57;;
1577;SDS011;57623;53.608;10.004;2022-12-07T02:21:15;7.73;;;6.67;;
1577;SDS011;57623;53.608;10.004;2022-12-07T02:24:15;8.93;;;7.57;;
1577;SDS011;57623;53.608;10.004;2022-12-07T02:27:19;7.43;;;6.37;;
1577;SDS011;57623;53.608;10.004;2022-12-07T02:30:13;8.10;;;6.50;;
1577;SDS011;57623;53.608;10.004;2022-12-07T02:33:04;7.67;;;5.60;;
1577;SDS011;57623;53.608;10.004;2022-12-07T02:36:02;8.40;;;6.50;;
1577;SDS011;57623;53.608;10.004;2022-12-07T02:38:58;6.50;;;5.80;;
1577;SDS011;57623;53.608;10.004;2022-12-07T02:41:48;5.90;;;5.17;;
1577;SDS011;57623;53.608;10.004;2022-12-07T02:44:41;9.00;;;6.00;;
1577;SDS011;57623;53.608;10.004;2022-12-07T02:47:31;6.67;;;4.50;;
1577;SDS011;57623;53.608;10.004;2022-12-07T02:50:22;7.50;;;4.80;;
1577;SDS011;57623;53.608;10.004;2022-12-07T02:53:29;5.07;;;4.47;;
1577;SDS011;57623;53.608;10.004;2022-12-07T02:56:27;6.03;;;4.40;;
1577;SDS011;57623;53.608;10.004;2022-12-07T02:59:21;5.33;;;3.87;;
1577;SDS011;57623;53.608;10.004;2022-12-07T03:02:16;5.93;;;3.90;;
1577;SDS011;57623;53.608;10.004;2022-12-07T03:05:21;6.73;;;3.73;;
1577;SDS011;57623;53.608;10.004;2022-12-07T03:08:15;4.43;;;3.80;;
1577;SDS011;57623;53.608;10.004;2022-12-07T03:11:11;3.40;;;3.10;;
1577;SDS011;57623;53.608;10.004;2022-12-07T03:14:08;5.30;;;3.50;;
1577;SDS011;57623;53.608;10.004;2022-12-07T03:17:02;3.87;;;3.00;;
1577;SDS011;57623;53.608;10.004;2022-12-07T03:19:54;4.07;;;3.13;;
1577;SDS011;57623;53.608;10.004;2022-12-07T03:22:48;3.00;;;2.70;;
1577;SDS011;57623;53.608;10.004;2022-12-07T03:25:41;3.33;;;3.03;;
1577;SDS011;57623;53.608;10.004;2022-12-07T03:28:35;4.03;;;2.60;;
1577;SDS011;57623;53.608;10.004;2022-12-07T03:31:26;3.97;;;2.50;;
1577;SDS011;57623;53.608;10.004;2022-12-07T03:34:22;2.23;;;2.00;;
1577;SDS011;57623;53.608;10.004;2022-12-07T03:37:15;2.03;;;1.80;;
1577;SDS011;57623;53.608;10.004;2022-12-07T03:40:11;4.73;;;1.70;;
1577;SDS011;57623;53.608;10.004;2022-12-07T03:43:01;3.07;;;2.20;;
1577;SDS011;57623;53.608;10.004;2022-12-07T03:45:56;2.70;;;2.50;;
1577;SDS011;57623;53.608;10.004;2022-12-07T03:48:49;2.10;;;1.70;;
1577;SDS011;57623;53.608;10.004;2022-12-07T03:51:44;2.53;;;1.67;;
1577;SDS011;57623;53.608;10.004;2022-12-07T03:54:34;3.53;;;1.77;;
1577;SDS011;57623;53.608;10.004;2022-12-07T03:57:28;2.10;;;1.60;;
1577;SDS011;57623;53.608;10.004;2022-12-07T04:00:19;1.50;;;1.40;;
1577;SDS011;57623;53.608;10.004;2022-12-07T04:03:08;2.80;;;2.00;;
1577;SDS011;57623;53.608;10.004;2022-12-07T04:05:58;3.67;;;1.93;;
1577;SDS011;57623;53.608;10.004;2022-12-07T04:08:52;3.03;;;2.00;;
1577;SDS011;57623;53.608;10.004;2022-12-07T04:11:44;2.70;;;2.07;;
1577;SDS011;57623;53.608;10.004;2022-12-07T04:14:34;3.20;;;2.10;;
1577;SDS011;57623;53.608;10.004;2022-12-07T04:17:23;2.10;;;1.90;;
1577;SDS011;57623;53.608;10.004;2022-12-07T04:20:13;4.37;;;1.90;;
1577;SDS011;57623;53.608;10.004;2022-12-07T04:23:01;2.63;;;2.40;;
1577;SDS011;57623;53.608;10.004;2022-12-07T04:25:50;2.10;;;1.80;;
1577;SDS011;57623;53.608;10.004;2022-12-07T04:28:50;3.80;;;2.37;;
1577;SDS011;57623;53.608;10.004;2022-12-07T04:31:54;2.63;;;1.90;;
1577;SDS011;57623;53.608;10.004;2022-12-07T04:34:43;3.70;;;2.20;;
1577;SDS011;57623;53.608;10.004;2022-12-07T04:37:41;2.30;;;2.10;;
1577;SDS011;57623;53.608;10.004;2022-12-07T04:40:29;2.73;;;2.13;;
1577;SDS011;57623;53.608;10.004;2022-12-07T04:43:19;2.87;;;2.40;;
1577;SDS011;57623;53.608;10.004;2022-12-07T04:46:10;4.00;;;2.60;;
1577;SDS011;57623;53.608;10.004;2022-12-07T04:49:00;2.87;;;2.30;;
1577;SDS011;57623;53.608;10.004;2022-12-07T04:51:58;4.13;;;2.60;;
1577;SDS011;57623;53.608;10.004;2022-12-07T04:54:49;3.83;;;2.50;;
1577;SDS011;57623;53.608;10.004;2022-12-07T04:57:38;3.70;;;2.77;;
1577;SDS011;57623;53.608;10.004;2022-12-07T05:00:26;3.00;;;2.43;;
1577;SDS011;57623;53.608;10.004;2022-12-07T05:03:22;3.10;;;2.80;;
1577;SDS011;57623;53.608;10.004;2022-12-07T05:06:16;3.13;;;2.60;;
1577;SDS011;57623;53.608;10.004;2022-12-07T05:09:07;3.20;;;2.77;;
1577;SDS011;57623;53.608;10.004;2022-12-07T05:11:59;3.03;;;2.63;;
1577;SDS011;57623;53.608;10.004;2022-12-07T05:14:49;3.27;;;2.87;;
1577;SDS011;57623;53.608;10.004;2022-12-07T05:17:37;3.17;;;2.87;;
1577;SDS011;57623;53.608;10.004;2022-12-07T05:20:28;3.63;;;3.07;;
1577;SDS011;57623;53.608;10.004;2022-12-07T05:23:35;5.90;;;2.90;;
1577;SDS011;57623;53.608;10.004;2022-12-07T05:26:24;3.33;;;3.03;;
1577;SDS011;57623;53.608;10.004;2022-12-07T05:29:14;3.70;;;3.23;;
1577;SDS011;57623;53.608;10.004;2022-12-07T05:32:03;3.27;;;2.87;;
1577;SDS011;57623;53.608;10.004;2022-12-07T05:34:58;3.50;;;2.77;;
1577;SDS011;57623;53.608;10.004;2022-12-07T05:37:52;3.00;;;2.70;;
1577;SDS011;57623;53.608;10.004;2022-12-07T05:40:44;3.33;;;2.70;;
1577;SDS011;57623;53.608;10.004;2022-12-07T05:43:34;3.87;;;3.17;;
1577;SDS011;57623;53.608;10.004;2022-12-07T05:46:29;3.60;;;3.13;;
1577;SDS011;57623;53.608;10.004;2022-12-07T05:49:20;4.90;;;3.33;;
1577;SDS011;57623;53.608;10.004;2022-12-07T05:52:10;3.47;;;2.90;;
1577;SDS011;57623;53.608;10.004;2022-12-07T05:54:58;4.80;;;3.07;;
1577;SDS011;57623;53.608;10.004;2022-12-07T05:57:50;3.60;;;3.30;;
1577;SDS011;57623;53.608;10.004;2022-12-07T06:00:53;4.17;;;3.67;;
1577;SDS011;57623;53.608;10.004;2022-12-07T06:03:42;4.00;;;2.90;;
1577;SDS011;57623;53.608;10.004;2022-12-07T06:06:32;3.97;;;2.97;;
1577;SDS011;57623;53.608;10.004;2022-12-07T06:09:24;3.93;;;3.50;;
1577;SDS011;57623;53.608;10.004;2022-12-07T06:12:13;3.67;;;3.37;;
1577;SDS011;57623;53.608;10.004;2022-12-07T06:15:21;5.43;;;3.30;;
1577;SDS011;57623;53.608;10.004;2022-12-07T06:18:12;3.70;;;3.23;;
1577;SDS011;57623;53.608;10.004;2022-12-07T06:21:01;4.00;;;3.60;;
1577;SDS011;57623;53.608;10.004;2022-12-07T06:23:52;4.60;;;3.70;;
1577;SDS011;57623;53.608;10.004;2022-12-07T06:26:40;5.13;;;3.70;;
1577;SDS011;57623;53.608;10.004;2022-12-07T06:29:31;3.83;;;3.43;;
1577;SDS011;57623;53.608;10.004;2022-12-07T06:32:24;3.93;;;3.50;;
1577;SDS011;57623;53.608;10.004;2022-12-07T06:35:12;3.93;;;3.53;;
1577;SDS011;57623;53.608;10.004;2022-12-07T06:38:01;3.43;;;3.10;;
1577;SDS011;57623;53.608;10.004;2022-12-07T06:40:50;3.83;;;3.13;;
1577;SDS011;57623;53.608;10.004;2022-12-07T06:43:46;4.23;;;3.30;;
1577;SDS011;57623;53.608;10.004;2022-12-07T06:46:41;3.83;;;3.00;;
1577;SDS011;57623;53.608;10.004;2022-12-07T06:49:34;4.17;;;3.20;;
1577;SDS011;57623;53.608;10.004;2022-12-07T06:52:25;3.47;;;3.07;;
1577;SDS011;57623;53.608;10.004;2022-12-07T06:55:13;6.50;;;3.30;;
1577;SDS011;57623;53.608;10.004;2022-12-07T06:58:05;3.07;;;2.77;;
1577;SDS011;57623;53.608;10.004;2022-12-07T07:00:56;3.20;;;2.80;;
1577;SDS011;57623;53.608;10.004;2022-12-07T07:03:50;8.37;;;3.10;;
1577;SDS011;57623;53.608;10.004;2022-12-07T07:06:43;7.20;;;3.90;;
1577;SDS011;57623;53.608;10.004;2022-12-07T07:09:32;3.33;;;2.60;;
1577;SDS011;57623;53.608;10.004;2022-12-07T07:12:21;3.97;;;2.30;;
1577;SDS011;57623;53.608;10.004;2022-12-07T07:15:09;5.33;;;2.83;;
1577;SDS011;57623;53.608;10.004;2022-12-07T07:18:01;3.83;;;2.40;;
1577;SDS011;57623;53.608;10.004;2022-12-07T07:20:53;2.67;;;2.00;;
1577;SDS011;57623;53.608;10.004;2022-12-07T07:23:47;2.50;;;2.27;;
1577;SDS011;57623;53.608;10.004;2022-12-07T07:26:35;3.23;;;2.33;;
1577;SDS011;57623;53.608;10.004;2022-12-07T07:29:24;6.33;;;2.20;;
1577;SDS011;57623;53.608;10.004;2022-12-07T07:32:12;3.43;;;2.10;;
1577;SDS011;57623;53.608;10.004;2022-12-07T07:35:04;4.27;;;1.97;;
1577;SDS011;57623;53.608;10.004;2022-12-07T07:37:54;2.73;;;1.97;;
1577;SDS011;57623;53.608;10.004;2022-12-07T07:40:44;2.57;;;2.00;;
1577;SDS011;57623;53.608;10.004;2022-12-07T07:43:33;3.20;;;1.90;;
1577;SDS011;57623;53.608;10.004;2022-12-07T07:46:25;2.27;;;1.57;;
1577;SDS011;57623;53.608;10.004;2022-12-07T07:49:18;1.97;;;1.40;;
1577;SDS011;57623;53.608;10.004;2022-12-07T07:52:06;1.70;;;1.30;;
1577;SDS011;57623;53.608;10.004;2022-12-07T07:54:56;2.90;;;1.50;;
1577;SDS011;57623;53.608;10.004;2022-12-07T07:57:48;2.60;;;1.70;;
1577;SDS011;57623;53.608;10.004;2022-12-07T08:00:40;2.20;;;1.83;;
1577;SDS011;57623;53.608;10.004;2022-12-07T08:03:35;1.70;;;1.60;;
1577;SDS011;57623;53.608;10.004;2022-12-07T08:06:27;1.83;;;1.57;;
1577;SDS011;57623;53.608;10.004;2022-12-07T08:09:18;1.50;;;1.40;;
1577;SDS011;57623;53.608;10.004;2022-12-07T08:12:08;2.67;;;1.40;;
1577;SDS011;57623;53.608;10.004;2022-12-07T08:14:58;2.03;;;1.67;;
1577;SDS011;57623;53.608;10.004;2022-12-07T08:17:47;2.77;;;1.50;;
1577;SDS011;57623;53.608;10.004;2022-12-07T08:20:35;7.03;;;1.60;;
1577;SDS011;57623;53.608;10.004;2022-12-07T08:23:24;2.27;;;1.83;;
1577;SDS011;57623;53.608;10.004;2022-12-07T08:26:24;1.57;;;1.47;;
1577;SDS011;57623;53.608;10.004;2022-12-07T08:29:15;3.37;;;1.90;;
1577;SDS011;57623;53.608;10.004;2022-12-07T08:32:06;2.13;;;1.33;;
1577;SDS011;57623;53.608;10.004;2022-12-07T08:34:57;2.57;;;1.70;;
1577;SDS011;57623;53.608;10.004;2022-12-07T08:37:50;2.70;;;1.80;;
1577;SDS011;57623;53.608;10.004;2022-12-07T08:40:39;2.30;;;1.40;;
1577;SDS011;57623;53.608;10.004;2022-12-07T08:43:27;1.93;;;1.50;;
1577;SDS011;57623;53.608;10.004;2022-12-07T08:46:21;2.73;;;1.50;;
1577;SDS011;57623;53.608;10.004;2022-12-07T08:49:17;2.20;;;1.43;;
1577;SDS011;57623;53.608;10.004;2022-12-07T08:52:07;3.33;;;1.60;;
1577;SDS011;57623;53.608;10.004;2022-12-07T08:54:57;4.30;;;1.90;;
1577;SDS011;57623;53.608;10.004;2022-12-07T08:57:46;2.20;;;1.43;;
1577;SDS011;57623;53.608;10.004;2022-12-07T09:00:42;3.23;;;1.63;;
1577;SDS011;57623;53.608;10.004;2022-12-07T09:03:40;3.83;;;1.40;;
1577;SDS011;57623;53.608;10.004;2022-12-07T09:06:32;4.80;;;1.77;;
1577;SDS011;57623;53.608;10.004;2022-12-07T09:09:25;3.20;;;1.60;;
1577;SDS011;57623;53.608;10.004;2022-12-07T09:12:19;1.83;;;1.50;;
1577;SDS011;57623;53.608;10.004;2022-12-07T09:15:08;3.60;;;1.40;;
1577;SDS011;57623;53.608;10.004;2022-12-07T09:17:56;1.57;;;1.20;;
1577;SDS011;57623;53.608;10.004;2022-12-07T09:20:49;3.07;;;1.47;;
1577;SDS011;57623;53.608;10.004;2022-12-07T09:23:42;3.90;;;1.90;;
1577;SDS011;57623;53.608;10.004;2022-12-07T09:26:31;1.93;;;1.47;;
1577;SDS011;57623;53.608;10.004;2022-12-07T09:29:19;3.07;;;1.80;;
1577;SDS011;57623;53.608;10.004;2022-12-07T09:32:08;3.53;;;1.67;;
1577;SDS011;57623;53.608;10.004;2022-12-07T09:35:00;4.40;;;2.03;;
1577;SDS011;57623;53.608;10.004;2022-12-07T09:37:53;2.43;;;1.60;;
1577;SDS011;57623;53.608;10.004;2022-12-07T09:40:52;3.97;;;1.60;;
1577;SDS011;57623;53.608;10.004;2022-12-07T09:43:47;3.83;;;1.90;;
1577;SDS011;57623;53.608;10.004;2022-12-07T09:46:39;1.80;;;1.67;;
1577;SDS011;57623;53.608;10.004;2022-12-07T09:49:28;6.13;;;1.67;;
1577;SDS011;57623;53.608;10.004;2022-12-07T09:52:24;2.17;;;1.70;;
1577;SDS011;57623;53.608;10.004;2022-12-07T09:55:15;2.87;;;1.90;;
1577;SDS011;57623;53.608;10.004;2022-12-07T09:58:05;3.90;;;1.80;;
1577;SDS011;57623;53.608;10.004;2022-12-07T10:00:56;3.87;;;1.43;;
1577;SDS011;57623;53.608;10.004;2022-12-07T10:03:48;3.60;;;1.60;;
1577;SDS011;57623;53.608;10.004;2022-12-07T10:06:37;2.60;;;1.70;;
1577;SDS011;57623;53.608;10.004;2022-12-07T10:09:26;4.10;;;1.87;;
1577;SDS011;57623;53.608;10.004;2022-12-07T10:12:21;5.03;;;1.50;;
1577;SDS011;57623;53.608;10.004;2022-12-07T10:15:11;4.27;;;1.70;;
1577;SDS011;57623;53.608;10.004;2022-12-07T10:18:14;2.87;;;1.50;;
1577;SDS011;57623;53.608;10.004;2022-12-07T10:21:19;2.30;;;1.67;;
1577;SDS011;57623;53.608;10.004;2022-12-07T10:24:13;7.03;;;1.90;;
1577;SDS011;57623;53.608;10.004;2022-12-07T10:27:02;4.73;;;2.10;;
1577;SDS011;57623;53.608;10.004;2022-12-07T10:29:53;2.20;;;1.50;;
1577;SDS011;57623;53.608;10.004;2022-12-07T10:32:45;3.47;;;1.40;;
1577;SDS011;57623;53.608;10.004;2022-12-07T10:35:34;2.00;;;1.13;;
1577;SDS011;57623;53.608;10.004;2022-12-07T10:38:30;3.70;;;1.50;;
1577;SDS011;57623;53.608;10.004;2022-12-07T10:41:19;3.50;;;1.63;;
1577;SDS011;57623;53.608;10.004;2022-12-07T10:44:12;2.83;;;1.20;;
1577;SDS011;57623;53.608;10.004;2022-12-07T10:50:29;2.40;;;1.20;;
1577;SDS011;57623;53.608;10.004;2022-12-07T10:53:36;1.80;;;1.10;;
1577;SDS011;57623;53.608;10.004;2022-12-07T10:56:50;2.07;;;1.17;;
1577;SDS011;57623;53.608;10.004;2022-12-07T10:59:45;2.20;;;1.40;;
1577;SDS011;57623;53.608;10.004;2022-12-07T11:02:38;2.43;;;1.20;;
1577;SDS011;57623;53.608;10.004;2022-12-07T11:05:34;3.30;;;1.37;;
1577;SDS011;57623;53.608;10.004;2022-12-07T11:08:33;3.57;;;1.10;;
1577;SDS011;57623;53.608;10.004;2022-12-07T11:11:29;3.13;;;1.40;;
1577;SDS011;57623;53.608;10.004;2022-12-07T11:14:20;4.10;;;1.50;;
1577;SDS011;57623;53.608;10.004;2022-12-07T11:17:22;3.30;;;1.33;;
1577;SDS011;57623;53.608;10.004;2022-12-07T11:20:27;4.70;;;1.47;;
1577;SDS011;57623;53.608;10.004;2022-12-07T11:23:21;2.90;;;1.30;;
1577;SDS011;57623;53.608;10.004;2022-12-07T11:26:24;3.63;;;1.30;;
1577;SDS011;57623;53.608;10.004;2022-12-07T11:29:22;3.10;;;1.30;;
1577;SDS011;57623;53.608;10.004;2022-12-07T11:32:17;4.30;;;1.70;;
1577;SDS011;57623;53.608;10.004;2022-12-07T11:35:11;2.73;;;1.50;;
1577;SDS011;57623;53.608;10.004;2022-12-07T11:38:08;10.60;;;1.90;;
1577;SDS011;57623;53.608;10.004;2022-12-07T11:41:09;2.80;;;1.37;;
1577;SDS011;57623;53.608;10.004;2022-12-07T11:44:04;3.60;;;1.30;;
1577;SDS011;57623;53.608;10.004;2022-12-07T11:46:54;2.90;;;0.97;;
1577;SDS011;57623;53.608;10.004;2022-12-07T11:49:50;4.67;;;1.60;;
1577;SDS011;57623;53.608;10.004;2022-12-07T11:52:43;2.10;;;1.03;;
1577;SDS011;57623;53.608;10.004;2022-12-07T11:55:38;2.60;;;1.40;;
1577;SDS011;57623;53.608;10.004;2022-12-07T11:58:44;2.10;;;1.40;;
1577;SDS011;57623;53.608;10.004;2022-12-07T12:04:47;3.30;;;1.40;;
1577;SDS011;57623;53.608;10.004;2022-12-07T12:07:46;2.47;;;1.60;;
1577;SDS011;57623;53.608;10.004;2022-12-07T12:11:05;3.80;;;1.40;;
1577;SDS011;57623;53.608;10.004;2022-12-07T12:17:28;1.93;;;1.23;;
1577;SDS011;57623;53.608;10.004;2022-12-07T12:20:20;2.60;;;1.17;;
1577;SDS011;57623;53.608;10.004;2022-12-07T12:23:15;3.40;;;1.37;;
1577;SDS011;57623;53.608;10.004;2022-12-07T12:26:07;3.47;;;1.30;;
1577;SDS011;57623;53.608;10.004;2022-12-07T12:29:03;1.90;;;1.27;;
1577;SDS011;57623;53.608;10.004;2022-12-07T12:32:04;4.27;;;1.30;;
1577;SDS011;57623;53.608;10.004;2022-12-07T12:35:01;5.60;;;1.37;;
1577;SDS011;57623;53.608;10.004;2022-12-07T12:37:52;2.70;;;1.60;;
1577;SDS011;57623;53.608;10.004;2022-12-07T12:40:46;3.80;;;1.37;;
1577;SDS011;57623;53.608;10.004;2022-12-07T12:43:44;6.23;;;2.07;;
1577;SDS011;57623;53.608;10.004;2022-12-07T12:46:47;7.03;;;1.80;;
1577;SDS011;57623;53.608;10.004;2022-12-07T12:49:38;3.63;;;1.70;;
1577;SDS011;57623;53.608;10.004;2022-12-07T12:58:44;4.67;;;1.17;;
1577;SDS011;57623;53.608;10.004;2022-12-07T13:01:41;3.63;;;1.53;;
1577;SDS011;57623;53.608;10.004;2022-12-07T13:04:48;3.23;;;1.10;;
1577;SDS011;57623;53.608;10.004;2022-12-07T13:10:50;2.47;;;1.10;;
1577;SDS011;57623;53.608;10.004;2022-12-07T13:13:39;1.93;;;1.00;;
1577;SDS011;57623;53.608;10.004;2022-12-07T13:22:49;3.43;;;1.40;;
1577;SDS011;57623;53.608;10.004;2022-12-07T13:25:41;1.53;;;0.83;;
1577;SDS011;57623;53.608;10.004;2022-12-07T13:28:37;4.53;;;1.10;;
1577;SDS011;57623;53.608;10.004;2022-12-07T13:31:31;2.90;;;1.93;;
1577;SDS011;57623;53.608;10.004;2022-12-07T13:34:31;2.43;;;1.10;;
1577;SDS011;57623;53.608;10.004;2022-12-07T13:37:24;3.40;;;1.50;;
1577;SDS011;57623;53.608;10.004;2022-12-07T13:40:18;2.73;;;1.00;;
1577;SDS011;57623;53.608;10.004;2022-12-07T13:43:12;6.57;;;1.27;;
1577;SDS011;57623;53.608;10.004;2022-12-07T13:46:03;4.60;;;0.97;;
1577;SDS011;57623;53.608;10.004;2022-12-07T13:49:02;4.30;;;1.17;;
1577;SDS011;57623;53.608;10.004;2022-12-07T13:52:13;1.90;;;1.37;;
1577;SDS011;57623;53.608;10.004;2022-12-07T13:55:11;2.40;;;1.20;;
1577;SDS011;57623;53.608;10.004;2022-12-07T13:58:08;2.20;;;1.13;;
1577;SDS011;57623;53.608;10.004;2022-12-07T14:00:57;3.70;;;1.30;;
1577;SDS011;57623;53.608;10.004;2022-12-07T14:03:46;3.47;;;1.43;;
1577;SDS011;57623;53.608;10.004;2022-12-07T14:06:46;2.30;;;0.90;;
1577;SDS011;57623;53.608;10.004;2022-12-07T14:09:35;5.20;;;1.23;;
1577;SDS011;57623;53.608;10.004;2022-12-07T14:12:26;3.90;;;1.00;;
1577;SDS011;57623;53.608;10.004;2022-12-07T14:15:26;3.60;;;1.00;;
1577;SDS011;57623;53.608;10.004;2022-12-07T14:18:24;3.27;;;1.13;;
1577;SDS011;57623;53.608;10.004;2022-12-07T14:21:16;5.00;;;1.63;;
1577;SDS011;57623;53.608;10.004;2022-12-07T14:24:15;2.80;;;1.30;;
1577;SDS011;57623;53.608;10.004;2022-12-07T14:27:16;3.43;;;1.10;;
1577;SDS011;57623;53.608;10.004;2022-12-07T14:30:15;2.47;;;1.43;;
1577;SDS011;57623;53.608;10.004;2022-12-07T14:33:05;1.63;;;0.90;;
1577;SDS011;57623;53.608;10.004;2022-12-07T14:35:56;2.60;;;1.00;;
1577;SDS011;57623;53.608;10.004;2022-12-07T14:38:48;3.50;;;1.10;;
1577;SDS011;57623;53.608;10.004;2022-12-07T14:41:45;1.93;;;1.13;;
1577;SDS011;57623;53.608;10.004;2022-12-07T14:44:43;3.70;;;1.27;;
1577;SDS011;57623;53.608;10.004;2022-12-07T14:47:31;5.30;;;1.70;;
1577;SDS011;57623;53.608;10.004;2022-12-07T14:50:42;3.73;;;1.20;;
1577;SDS011;57623;53.608;10.004;2022-12-07T14:53:56;3.70;;;1.27;;
1577;SDS011;57623;53.608;10.004;2022-12-07T14:56:45;2.80;;;1.33;;
1577;SDS011;57623;53.608;10.004;2022-12-07T14:59:38;3.60;;;1.50;;
1577;SDS011;57623;53.608;10.004;2022-12-07T15:02:32;5.17;;;1.27;;
1577;SDS011;57623;53.608;10.004;2022-12-07T15:05:24;2.40;;;1.47;;
1577;SDS011;57623;53.608;10.004;2022-12-07T15:08:14;4.93;;;1.57;;
1577;SDS011;57623;53.608;10.004;2022-12-07T15:11:06;3.60;;;1.30;;
1577;SDS011;57623;53.608;10.004;2022-12-07T15:14:01;3.40;;;1.40;;
1577;SDS011;57623;53.608;10.004;2022-12-07T15:16:57;2.87;;;1.13;;
1577;SDS011;57623;53.608;10.004;2022-12-07T15:19:57;3.03;;;1.00;;
1577;SDS011;57623;53.608;10.004;2022-12-07T15:22:53;6.73;;;1.30;;
1577;SDS011;57623;53.608;10.004;2022-12-07T15:25:52;2.60;;;0.87;;
1577;SDS011;57623;53.608;10.004;2022-12-07T15:28:42;1.40;;;0.90;;
1577;SDS011;57623;53.608;10.004;2022-12-07T15:31:32;1.33;;;0.80;;
1577;SDS011;57623;53.608;10.004;2022-12-07T15:34:41;0.80;;;0.80;;
1577;SDS011;57623;53.608;10.004;2022-12-07T15:37:31;1.73;;;1.07;;
1577;SDS011;57623;53.608;10.004;2022-12-07T15:40:21;2.10;;;0.80;;
1577;SDS011;57623;53.608;10.004;2022-12-07T15:43:11;1.33;;;0.90;;
1577;SDS011;57623;53.608;10.004;2022-12-07T15:46:16;0.83;;;0.83;;
1577;SDS011;57623;53.608;10.004;2022-12-07T15:49:06;1.63;;;1.00;;
1577;SDS011;57623;53.608;10.004;2022-12-07T15:51:57;1.60;;;1.37;;
1577;SDS011;57623;53.608;10.004;2022-12-07T15:54:48;1.30;;;1.20;;
1577;SDS011;57623;53.608;10.004;2022-12-07T15:57:41;2.00;;;1.50;;
1577;SDS011;57623;53.608;10.004;2022-12-07T16:00:31;4.20;;;1.30;;
1577;SDS011;57623;53.608;10.004;2022-12-07T16:03:21;1.90;;;1.63;;
1577;SDS011;57623;53.608;10.004;2022-12-07T16:06:12;2.80;;;1.97;;
1577;SDS011;57623;53.608;10.004;2022-12-07T16:09:00;2.00;;;1.67;;
1577;SDS011;57623;53.608;10.004;2022-12-07T16:11:49;3.07;;;1.33;;
1577;SDS011;57623;53.608;10.004;2022-12-07T16:14:46;4.47;;;2.00;;
1577;SDS011;57623;53.608;10.004;2022-12-07T16:17:36;3.77;;;1.50;;
1577;SDS011;57623;53.608;10.004;2022-12-07T16:20:24;3.57;;;2.10;;
1577;SDS011;57623;53.608;10.004;2022-12-07T16:23:17;3.20;;;2.00;;
1577;SDS011;57623;53.608;10.004;2022-12-07T16:26:08;3.30;;;2.40;;
1577;SDS011;57623;53.608;10.004;2022-12-07T16:28:57;3.10;;;2.00;;
1577;SDS011;57623;53.608;10.004;2022-12-07T16:31:46;3.17;;;2.87;;
1577;SDS011;57623;53.608;10.004;2022-12-07T16:37:44;4.13;;;2.70;;
1577;SDS011;57623;53.608;10.004;2022-12-07T16:40:33;3.20;;;2.10;;
1577;SDS011;57623;53.608;10.004;2022-12-07T16:43:24;3.80;;;2.50;;
1577;SDS011;57623;53.608;10.004;2022-12-07T16:46:12;2.37;;;1.90;;
1577;SDS011;57623;53.608;10.004;2022-12-07T16:49:04;4.93;;;2.63;;
1577;SDS011;57623;53.608;10.004;2022-12-07T16:51:55;2.77;;;2.37;;
1577;SDS011;57623;53.608;10.004;2022-12-07T16:55:12;4.93;;;2.30;;
1577;SDS011;57623;53.608;10.004;2022-12-07T16:58:02;3.20;;;2.00;;
1577;SDS011;57623;53.608;10.004;2022-12-07T17:00:50;3.63;;;2.13;;
1577;SDS011;57623;53.608;10.004;2022-12-07T17:03:39;3.40;;;1.67;;
1577;SDS011;57623;53.608;10.004;2022-12-07T17:06:29;3.97;;;2.20;;
1577;SDS011;57623;53.608;10.004;2022-12-07T17:09:20;2.90;;;2.10;;
1577;SDS011;57623;53.608;10.004;2022-12-07T17:12:11;2.70;;;2.33;;
1577;SDS011;57623;53.608;10.004;2022-12-07T17:15:00;6.50;;;2.77;;
1577;SDS011;57623;53.608;10.004;2022-12-07T17:18:04;4.13;;;2.77;;
1577;SDS011;57623;53.608;10.004;2022-12-07T17:21:02;3.23;;;2.40;;
1577;SDS011;57623;53.608;10.004;2022-12-07T17:23:55;3.87;;;3.50;;
1577;SDS011;57623;53.608;10.004;2022-12-07T17:26:48;5.97;;;3.13;;
1577;SDS011;57623;53.608;10.004;2022-12-07T17:29:43;4.13;;;3.40;;
1577;SDS011;57623;53.608;10.004;2022-12-07T17:32:36;5.10;;;4.07;;
1577;SDS011;57623;53.608;10.004;2022-12-07T17:35:27;4.20;;;3.80;;
1577;SDS011;57623;53.608;10.004;2022-12-07T17:38:16;7.23;;;4.90;;
1577;SDS011;57623;53.608;10.004;2022-12-07T17:41:11;5.60;;;4.10;;
1577;SDS011;57623;53.608;10.004;2022-12-07T17:44:22;4.70;;;3.90;;
1577;SDS011;57623;53.608;10.004;2022-12-07T17:47:12;9.20;;;4.43;;
1577;SDS011;57623;53.608;10.004;2022-12-07T17:50:06;5.70;;;5.20;;
1577;SDS011;57623;53.608;10.004;2022-12-07T17:52:58;6.07;;;4.70;;